sensor_id;sensor_type;location;lat;lon;timestamp;temperature;humidity
47857;DHT22;33618;49.972;8.242;2023-10-08T00:01:17;16.30;95.50
47857;DHT22;33618;49.972;8.242;2023-10-08T00:03:47;16.30;95.60
47857;DHT22;33618;49.972;8.242;2023-10-08T00:06:19;16.30;95.80
47857;DHT22;33618;49.972;8.242;2023-10-08T00:08:48;16.40;95.70
47857;DHT22;33618;49.972;8.242;2023-10-08T00:11:15;16.30;95.50
47857;DHT22;33618;49.972;8.242;2023-10-08T00:13:43;16.30;95.70
47857;DHT22;33618;49.972;8.242;2023-10-08T00:16:12;16.40;95.10
47857;DHT22;33618;49.972;8.242;2023-10-08T00:18:48;16.40;95.30
47857;DHT22;33618;49.972;8.242;2023-10-08T00:21:16;16.40;95.10
47857;DHT22;33618;49.972;8.242;2023-10-08T00:23:44;16.50;95.00
47857;DHT22;33618;49.972;8.242;2023-10-08T00:26:37;16.60;94.80
47857;DHT22;33618;49.972;8.242;2023-10-08T00:29:08;16.70;94.60
47857;DHT22;33618;49.972;8.242;2023-10-08T00:31:48;16.80;94.60
47857;DHT22;33618;49.972;8.242;2023-10-08T00:34:19;16.80;94.70
47857;DHT22;33618;49.972;8.242;2023-10-08T00:36:47;16.80;94.40
47857;DHT22;33618;49.972;8.242;2023-10-08T00:39:17;16.90;94.40
47857;DHT22;33618;49.972;8.242;2023-10-08T00:41:51;16.90;94.30
47857;DHT22;33618;49.972;8.242;2023-10-08T00:44:26;17.00;94.00
47857;DHT22;33618;49.972;8.242;2023-10-08T00:46:57;17.20;93.70
47857;DHT22;33618;49.972;8.242;2023-10-08T00:49:28;17.30;93.70
47857;DHT22;33618;49.972;8.242;2023-10-08T00:52:09;17.30;93.50
47857;DHT22;33618;49.972;8.242;2023-10-08T00:54:38;17.30;93.40
47857;DHT22;33618;49.972;8.242;2023-10-08T00:57:27;17.20;93.50
47857;DHT22;33618;49.972;8.242;2023-10-08T00:59:57;17.20;93.60
47857;DHT22;33618;49.972;8.242;2023-10-08T01:02:28;17.20;93.60
47857;DHT22;33618;49.972;8.242;2023-10-08T01:05:03;17.10;93.80
47857;DHT22;33618;49.972;8.242;2023-10-08T01:07:32;17.00;93.90
47857;DHT22;33618;49.972;8.242;2023-10-08T01:10:02;16.90;94.00
47857;DHT22;33618;49.972;8.242;2023-10-08T01:12:37;16.90;94.20
47857;DHT22;33618;49.972;8.242;2023-10-08T01:15:16;16.80;94.30
47857;DHT22;33618;49.972;8.242;2023-10-08T01:17:50;16.80;94.30
47857;DHT22;33618;49.972;8.242;2023-10-08T01:20:42;16.70;94.50
47857;DHT22;33618;49.972;8.242;2023-10-08T01:23:27;16.70;94.70
47857;DHT22;33618;49.972;8.242;2023-10-08T01:25:54;16.60;94.80
47857;DHT22;33618;49.972;8.242;2023-10-08T01:28:37;16.70;94.70
47857;DHT22;33618;49.972;8.242;2023-10-08T01:31:04;16.60;94.70
47857;DHT22;33618;49.972;8.242;2023-10-08T01:33:33;16.70;94.60
47857;DHT22;33618;49.972;8.242;2023-10-08T01:36:13;16.70;94.60
47857;DHT22;33618;49.972;8.242;2023-10-08T01:38:40;16.70;94.50
47857;DHT22;33618;49.972;8.242;2023-10-08T01:41:15;16.80;94.30
47857;DHT22;33618;49.972;8.242;2023-10-08T01:43:46;16.70;94.40
47857;DHT22;33618;49.972;8.242;2023-10-08T01:46:14;16.70;94.40
47857;DHT22;33618;49.972;8.242;2023-10-08T01:48:43;16.60;94.60
47857;DHT22;33618;49.972;8.242;2023-10-08T01:51:12;16.50;94.70
47857;DHT22;33618;49.972;8.242;2023-10-08T01:53:46;16.50;94.70
47857;DHT22;33618;49.972;8.242;2023-10-08T01:56:14;16.40;94.90
47857;DHT22;33618;49.972;8.242;2023-10-08T01:58:41;16.30;95.20
47857;DHT22;33618;49.972;8.242;2023-10-08T02:01:08;16.30;95.60
47857;DHT22;33618;49.972;8.242;2023-10-08T02:03:39;16.30;95.90
47857;DHT22;33618;49.972;8.242;2023-10-08T02:06:08;16.20;96.10
47857;DHT22;33618;49.972;8.242;2023-10-08T02:08:35;16.20;96.30
47857;DHT22;33618;49.972;8.242;2023-10-08T02:11:03;16.10;95.80
47857;DHT22;33618;49.972;8.242;2023-10-08T02:13:30;16.20;95.60
47857;DHT22;33618;49.972;8.242;2023-10-08T02:16:01;16.20;95.60
47857;DHT22;33618;49.972;8.242;2023-10-08T02:18:28;16.20;95.40
47857;DHT22;33618;49.972;8.242;2023-10-08T02:20:57;16.20;95.10
47857;DHT22;33618;49.972;8.242;2023-10-08T02:23:25;16.20;95.00
47857;DHT22;33618;49.972;8.242;2023-10-08T02:25:52;16.30;94.80
47857;DHT22;33618;49.972;8.242;2023-10-08T02:28:21;16.30;94.70
47857;DHT22;33618;49.972;8.242;2023-10-08T02:30:51;16.40;94.50
47857;DHT22;33618;49.972;8.242;2023-10-08T02:33:18;16.40;94.30
47857;DHT22;33618;49.972;8.242;2023-10-08T02:35:46;16.40;94.20
47857;DHT22;33618;49.972;8.242;2023-10-08T02:38:15;16.50;94.10
47857;DHT22;33618;49.972;8.242;2023-10-08T02:40:48;16.50;94.00
47857;DHT22;33618;49.972;8.242;2023-10-08T02:43:16;16.50;94.00
47857;DHT22;33618;49.972;8.242;2023-10-08T02:45:43;16.50;94.00
47857;DHT22;33618;49.972;8.242;2023-10-08T02:48:15;16.40;94.00
47857;DHT22;33618;49.972;8.242;2023-10-08T02:50:43;16.50;94.00
47857;DHT22;33618;49.972;8.242;2023-10-08T02:53:14;16.40;94.00
47857;DHT22;33618;49.972;8.242;2023-10-08T02:55:45;16.40;93.90
47857;DHT22;33618;49.972;8.242;2023-10-08T02:58:14;16.50;93.80
47857;DHT22;33618;49.972;8.242;2023-10-08T03:00:42;16.40;93.80
47857;DHT22;33618;49.972;8.242;2023-10-08T03:03:10;16.40;93.80
47857;DHT22;33618;49.972;8.242;2023-10-08T03:08:17;16.40;93.70
47857;DHT22;33618;49.972;8.242;2023-10-08T03:10:52;16.30;93.90
47857;DHT22;33618;49.972;8.242;2023-10-08T03:13:23;16.30;93.90
47857;DHT22;33618;49.972;8.242;2023-10-08T03:15:50;16.30;94.00
47857;DHT22;33618;49.972;8.242;2023-10-08T03:18:30;16.30;94.00
47857;DHT22;33618;49.972;8.242;2023-10-08T03:21:05;16.20;94.00
47857;DHT22;33618;49.972;8.242;2023-10-08T03:23:49;16.30;94.10
47857;DHT22;33618;49.972;8.242;2023-10-08T03:26:24;16.30;94.20
47857;DHT22;33618;49.972;8.242;2023-10-08T03:29:00;16.20;94.20
47857;DHT22;33618;49.972;8.242;2023-10-08T03:31:28;16.20;94.20
47857;DHT22;33618;49.972;8.242;2023-10-08T03:34:30;16.20;94.20
47857;DHT22;33618;49.972;8.242;2023-10-08T03:37:00;16.10;94.20
47857;DHT22;33618;49.972;8.242;2023-10-08T03:39:33;16.10;94.20
47857;DHT22;33618;49.972;8.242;2023-10-08T03:42:20;16.00;95.00
47857;DHT22;33618;49.972;8.242;2023-10-08T03:44:52;15.90;95.20
47857;DHT22;33618;49.972;8.242;2023-10-08T03:47:19;15.80;95.50
47857;DHT22;33618;49.972;8.242;2023-10-08T03:49:49;15.70;95.50
47857;DHT22;33618;49.972;8.242;2023-10-08T03:52:18;15.70;95.60
47857;DHT22;33618;49.972;8.242;2023-10-08T03:54:50;15.70;95.50
47857;DHT22;33618;49.972;8.242;2023-10-08T03:57:46;15.60;95.70
47857;DHT22;33618;49.972;8.242;2023-10-08T04:00:23;15.60;95.70
47857;DHT22;33618;49.972;8.242;2023-10-08T04:02:58;15.60;95.80
47857;DHT22;33618;49.972;8.242;2023-10-08T04:05:36;15.60;95.90
47857;DHT22;33618;49.972;8.242;2023-10-08T04:08:31;15.50;95.80
47857;DHT22;33618;49.972;8.242;2023-10-08T04:11:11;15.60;95.80
47857;DHT22;33618;49.972;8.242;2023-10-08T04:13:59;15.50;95.90
47857;DHT22;33618;49.972;8.242;2023-10-08T04:16:27;15.40;96.00
47857;DHT22;33618;49.972;8.242;2023-10-08T04:18:55;15.40;96.30
47857;DHT22;33618;49.972;8.242;2023-10-08T04:21:23;15.40;96.50
47857;DHT22;33618;49.972;8.242;2023-10-08T04:23:54;15.40;96.40
47857;DHT22;33618;49.972;8.242;2023-10-08T04:26:24;15.40;96.40
47857;DHT22;33618;49.972;8.242;2023-10-08T04:28:54;15.40;96.40
47857;DHT22;33618;49.972;8.242;2023-10-08T04:31:24;15.50;96.30
47857;DHT22;33618;49.972;8.242;2023-10-08T04:33:55;15.50;96.20
47857;DHT22;33618;49.972;8.242;2023-10-08T04:36:27;15.60;95.90
47857;DHT22;33618;49.972;8.242;2023-10-08T04:38:54;15.70;95.70
47857;DHT22;33618;49.972;8.242;2023-10-08T04:41:24;15.80;95.60
47857;DHT22;33618;49.972;8.242;2023-10-08T04:43:55;15.90;95.30
47857;DHT22;33618;49.972;8.242;2023-10-08T04:46:22;15.80;95.40
47857;DHT22;33618;49.972;8.242;2023-10-08T04:49:14;15.80;95.30
47857;DHT22;33618;49.972;8.242;2023-10-08T04:52:06;15.80;95.40
47857;DHT22;33618;49.972;8.242;2023-10-08T04:54:43;15.80;95.50
47857;DHT22;33618;49.972;8.242;2023-10-08T04:57:19;15.80;95.50
47857;DHT22;33618;49.972;8.242;2023-10-08T04:59:49;15.70;95.70
47857;DHT22;33618;49.972;8.242;2023-10-08T05:02:18;15.80;95.50
47857;DHT22;33618;49.972;8.242;2023-10-08T05:05:16;15.80;95.50
47857;DHT22;33618;49.972;8.242;2023-10-08T05:07:43;15.80;95.40
47857;DHT22;33618;49.972;8.242;2023-10-08T05:10:14;15.80;95.50
47857;DHT22;33618;49.972;8.242;2023-10-08T05:12:51;15.70;95.60
47857;DHT22;33618;49.972;8.242;2023-10-08T05:15:38;15.70;95.70
47857;DHT22;33618;49.972;8.242;2023-10-08T05:18:08;15.70;95.60
47857;DHT22;33618;49.972;8.242;2023-10-08T05:20:41;15.70;95.60
47857;DHT22;33618;49.972;8.242;2023-10-08T05:23:18;15.70;95.50
47857;DHT22;33618;49.972;8.242;2023-10-08T05:25:53;15.60;95.60
47857;DHT22;33618;49.972;8.242;2023-10-08T05:28:37;15.60;95.60
47857;DHT22;33618;49.972;8.242;2023-10-08T05:31:14;15.60;95.60
47857;DHT22;33618;49.972;8.242;2023-10-08T05:33:42;15.60;95.60
47857;DHT22;33618;49.972;8.242;2023-10-08T05:36:27;15.60;95.70
47857;DHT22;33618;49.972;8.242;2023-10-08T05:39:01;15.60;95.70
47857;DHT22;33618;49.972;8.242;2023-10-08T05:41:42;15.60;95.60
47857;DHT22;33618;49.972;8.242;2023-10-08T05:44:32;15.60;95.50
47857;DHT22;33618;49.972;8.242;2023-10-08T05:47:06;15.70;95.40
47857;DHT22;33618;49.972;8.242;2023-10-08T05:49:50;15.70;95.40
47857;DHT22;33618;49.972;8.242;2023-10-08T05:52:44;15.70;95.50
47857;DHT22;33618;49.972;8.242;2023-10-08T05:55:37;15.70;95.20
47857;DHT22;33618;49.972;8.242;2023-10-08T05:58:14;15.80;95.10
47857;DHT22;33618;49.972;8.242;2023-10-08T06:00:51;15.80;94.90
47857;DHT22;33618;49.972;8.242;2023-10-08T06:03:53;15.80;94.90
47857;DHT22;33618;49.972;8.242;2023-10-08T06:06:48;15.80;94.90
47857;DHT22;33618;49.972;8.242;2023-10-08T06:09:34;15.80;94.90
47857;DHT22;33618;49.972;8.242;2023-10-08T06:12:06;15.80;95.00
47857;DHT22;33618;49.972;8.242;2023-10-08T06:14:36;15.80;95.00
47857;DHT22;33618;49.972;8.242;2023-10-08T06:17:20;15.80;95.30
47857;DHT22;33618;49.972;8.242;2023-10-08T06:20:05;15.80;95.40
47857;DHT22;33618;49.972;8.242;2023-10-08T06:22:43;15.80;96.00
47857;DHT22;33618;49.972;8.242;2023-10-08T06:25:11;15.90;96.20
47857;DHT22;33618;49.972;8.242;2023-10-08T06:27:45;15.90;95.40
47857;DHT22;33618;49.972;8.242;2023-10-08T06:30:12;15.90;95.40
47857;DHT22;33618;49.972;8.242;2023-10-08T06:32:44;15.90;95.50
47857;DHT22;33618;49.972;8.242;2023-10-08T06:35:12;16.00;95.20
47857;DHT22;33618;49.972;8.242;2023-10-08T06:37:46;15.90;95.20
47857;DHT22;33618;49.972;8.242;2023-10-08T06:40:22;15.90;95.10
47857;DHT22;33618;49.972;8.242;2023-10-08T06:43:05;15.90;95.30
47857;DHT22;33618;49.972;8.242;2023-10-08T06:45:49;16.00;95.80
47857;DHT22;33618;49.972;8.242;2023-10-08T06:48:20;16.00;96.20
47857;DHT22;33618;49.972;8.242;2023-10-08T06:50:50;16.00;96.30
47857;DHT22;33618;49.972;8.242;2023-10-08T06:53:18;16.20;96.20
47857;DHT22;33618;49.972;8.242;2023-10-08T06:55:45;16.20;95.70
47857;DHT22;33618;49.972;8.242;2023-10-08T06:58:15;16.30;95.30
47857;DHT22;33618;49.972;8.242;2023-10-08T07:00:41;16.40;95.00
47857;DHT22;33618;49.972;8.242;2023-10-08T07:03:16;16.40;94.90
47857;DHT22;33618;49.972;8.242;2023-10-08T07:05:46;16.50;94.80
47857;DHT22;33618;49.972;8.242;2023-10-08T07:08:30;16.60;95.10
47857;DHT22;33618;49.972;8.242;2023-10-08T07:11:00;16.70;94.60
47857;DHT22;33618;49.972;8.242;2023-10-08T07:13:28;16.90;94.10
47857;DHT22;33618;49.972;8.242;2023-10-08T07:15:56;17.00;93.80
47857;DHT22;33618;49.972;8.242;2023-10-08T07:18:23;17.10;93.60
47857;DHT22;33618;49.972;8.242;2023-10-08T07:20:55;17.20;93.60
47857;DHT22;33618;49.972;8.242;2023-10-08T07:23:28;17.30;93.30
47857;DHT22;33618;49.972;8.242;2023-10-08T07:26:03;17.30;93.30
47857;DHT22;33618;49.972;8.242;2023-10-08T07:28:41;17.40;93.10
47857;DHT22;33618;49.972;8.242;2023-10-08T07:31:22;17.50;92.90
47857;DHT22;33618;49.972;8.242;2023-10-08T07:33:56;17.50;92.90
47857;DHT22;33618;49.972;8.242;2023-10-08T07:36:27;17.60;93.20
47857;DHT22;33618;49.972;8.242;2023-10-08T07:38:54;17.70;93.40
47857;DHT22;33618;49.972;8.242;2023-10-08T07:41:21;17.80;93.50
47857;DHT22;33618;49.972;8.242;2023-10-08T07:43:49;17.90;93.80
47857;DHT22;33618;49.972;8.242;2023-10-08T07:46:22;17.90;93.80
47857;DHT22;33618;49.972;8.242;2023-10-08T07:48:50;17.90;93.60
47857;DHT22;33618;49.972;8.242;2023-10-08T07:51:17;17.90;93.30
47857;DHT22;33618;49.972;8.242;2023-10-08T07:53:53;18.00;92.80
47857;DHT22;33618;49.972;8.242;2023-10-08T07:56:24;18.10;92.20
47857;DHT22;33618;49.972;8.242;2023-10-08T07:58:52;18.10;92.40
47857;DHT22;33618;49.972;8.242;2023-10-08T08:01:23;18.20;92.20
47857;DHT22;33618;49.972;8.242;2023-10-08T08:03:51;18.30;91.90
47857;DHT22;33618;49.972;8.242;2023-10-08T08:06:18;18.30;91.90
47857;DHT22;33618;49.972;8.242;2023-10-08T08:08:45;18.30;91.80
47857;DHT22;33618;49.972;8.242;2023-10-08T08:11:12;18.30;91.80
47857;DHT22;33618;49.972;8.242;2023-10-08T08:13:39;18.30;91.90
47857;DHT22;33618;49.972;8.242;2023-10-08T08:16:13;18.30;92.10
47857;DHT22;33618;49.972;8.242;2023-10-08T08:18:48;18.20;92.20
47857;DHT22;33618;49.972;8.242;2023-10-08T08:21:19;18.30;92.00
47857;DHT22;33618;49.972;8.242;2023-10-08T08:23:47;18.30;91.90
47857;DHT22;33618;49.972;8.242;2023-10-08T08:28:57;18.30;91.90
47857;DHT22;33618;49.972;8.242;2023-10-08T08:31:27;18.30;92.00
47857;DHT22;33618;49.972;8.242;2023-10-08T08:33:58;18.30;92.00
47857;DHT22;33618;49.972;8.242;2023-10-08T08:36:30;18.30;92.00
47857;DHT22;33618;49.972;8.242;2023-10-08T08:39:00;18.30;92.30
47857;DHT22;33618;49.972;8.242;2023-10-08T08:41:27;18.30;92.10
47857;DHT22;33618;49.972;8.242;2023-10-08T08:43:55;18.30;92.00
47857;DHT22;33618;49.972;8.242;2023-10-08T08:46:36;18.30;91.90
47857;DHT22;33618;49.972;8.242;2023-10-08T08:49:08;18.30;91.80
47857;DHT22;33618;49.972;8.242;2023-10-08T08:51:35;18.30;92.00
47857;DHT22;33618;49.972;8.242;2023-10-08T08:54:03;18.30;92.00
47857;DHT22;33618;49.972;8.242;2023-10-08T08:56:40;18.20;92.10
47857;DHT22;33618;49.972;8.242;2023-10-08T08:59:10;18.20;92.00
47857;DHT22;33618;49.972;8.242;2023-10-08T09:01:40;18.20;91.90
47857;DHT22;33618;49.972;8.242;2023-10-08T09:04:07;18.30;91.80
47857;DHT22;33618;49.972;8.242;2023-10-08T09:06:35;18.40;91.90
47857;DHT22;33618;49.972;8.242;2023-10-08T09:09:04;18.50;91.60
47857;DHT22;33618;49.972;8.242;2023-10-08T09:11:51;18.60;91.70
47857;DHT22;33618;49.972;8.242;2023-10-08T09:14:24;18.70;91.50
47857;DHT22;33618;49.972;8.242;2023-10-08T09:16:54;18.70;91.50
47857;DHT22;33618;49.972;8.242;2023-10-08T09:19:21;18.70;91.40
47857;DHT22;33618;49.972;8.242;2023-10-08T09:24:28;18.70;91.40
47857;DHT22;33618;49.972;8.242;2023-10-08T09:26:55;18.80;91.30
47857;DHT22;33618;49.972;8.242;2023-10-08T09:29:25;18.90;91.30
47857;DHT22;33618;49.972;8.242;2023-10-08T09:31:58;19.10;91.20
47857;DHT22;33618;49.972;8.242;2023-10-08T09:34:30;19.20;90.90
47857;DHT22;33618;49.972;8.242;2023-10-08T09:36:58;19.20;91.00
47857;DHT22;33618;49.972;8.242;2023-10-08T09:39:29;19.20;91.10
47857;DHT22;33618;49.972;8.242;2023-10-08T09:42:02;19.30;91.00
47857;DHT22;33618;49.972;8.242;2023-10-08T09:44:38;19.30;90.90
47857;DHT22;33618;49.972;8.242;2023-10-08T09:47:08;19.40;90.70
47857;DHT22;33618;49.972;8.242;2023-10-08T09:49:56;19.40;90.80
47857;DHT22;33618;49.972;8.242;2023-10-08T09:52:48;19.50;90.60
47857;DHT22;33618;49.972;8.242;2023-10-08T09:55:17;19.60;90.60
47857;DHT22;33618;49.972;8.242;2023-10-08T09:57:44;19.60;90.40
47857;DHT22;33618;49.972;8.242;2023-10-08T10:00:12;19.60;90.40
47857;DHT22;33618;49.972;8.242;2023-10-08T10:02:43;19.70;90.60
47857;DHT22;33618;49.972;8.242;2023-10-08T10:05:11;19.90;90.40
47857;DHT22;33618;49.972;8.242;2023-10-08T10:07:40;20.10;90.10
47857;DHT22;33618;49.972;8.242;2023-10-08T10:10:31;20.20;90.10
47857;DHT22;33618;49.972;8.242;2023-10-08T10:13:00;20.40;89.50
47857;DHT22;33618;49.972;8.242;2023-10-08T10:15:27;20.50;89.30
47857;DHT22;33618;49.972;8.242;2023-10-08T10:18:26;20.50;89.30
47857;DHT22;33618;49.972;8.242;2023-10-08T10:20:59;20.70;88.90
47857;DHT22;33618;49.972;8.242;2023-10-08T10:23:41;20.90;89.20
47857;DHT22;33618;49.972;8.242;2023-10-08T10:29:21;21.20;88.00
47857;DHT22;33618;49.972;8.242;2023-10-08T10:31:50;21.20;87.40
47857;DHT22;33618;49.972;8.242;2023-10-08T10:34:24;21.20;87.70
47857;DHT22;33618;49.972;8.242;2023-10-08T10:37:19;21.20;87.60
47857;DHT22;33618;49.972;8.242;2023-10-08T10:40:10;21.10;87.20
47857;DHT22;33618;49.972;8.242;2023-10-08T10:43:04;21.10;87.10
47857;DHT22;33618;49.972;8.242;2023-10-08T10:46:01;21.20;87.40
47857;DHT22;33618;49.972;8.242;2023-10-08T10:49:11;21.60;86.40
47857;DHT22;33618;49.972;8.242;2023-10-08T10:52:10;21.90;86.70
47857;DHT22;33618;49.972;8.242;2023-10-08T10:54:44;21.90;85.50
47857;DHT22;33618;49.972;8.242;2023-10-08T10:57:25;21.80;85.60
47857;DHT22;33618;49.972;8.242;2023-10-08T11:00:05;21.90;86.70
47857;DHT22;33618;49.972;8.242;2023-10-08T11:02:52;22.10;85.60
47857;DHT22;33618;49.972;8.242;2023-10-08T11:05:23;22.40;85.40
47857;DHT22;33618;49.972;8.242;2023-10-08T11:07:56;22.70;85.10
47857;DHT22;33618;49.972;8.242;2023-10-08T11:10:31;22.80;84.10
47857;DHT22;33618;49.972;8.242;2023-10-08T11:12:59;23.10;84.40
47857;DHT22;33618;49.972;8.242;2023-10-08T11:15:28;23.60;84.10
47857;DHT22;33618;49.972;8.242;2023-10-08T11:18:09;24.00;83.80
47857;DHT22;33618;49.972;8.242;2023-10-08T11:20:36;24.30;82.80
47857;DHT22;33618;49.972;8.242;2023-10-08T11:23:07;24.40;82.20
47857;DHT22;33618;49.972;8.242;2023-10-08T11:25:56;24.40;82.00
47857;DHT22;33618;49.972;8.242;2023-10-08T11:28:33;24.30;82.50
47857;DHT22;33618;49.972;8.242;2023-10-08T11:31:04;24.30;82.30
47857;DHT22;33618;49.972;8.242;2023-10-08T11:33:40;24.30;82.00
47857;DHT22;33618;49.972;8.242;2023-10-08T11:36:09;24.30;82.80
47857;DHT22;33618;49.972;8.242;2023-10-08T11:38:46;24.30;82.10
47857;DHT22;33618;49.972;8.242;2023-10-08T11:41:17;24.20;82.50
47857;DHT22;33618;49.972;8.242;2023-10-08T11:43:52;24.30;82.40
47857;DHT22;33618;49.972;8.242;2023-10-08T11:46:29;24.30;82.20
47857;DHT22;33618;49.972;8.242;2023-10-08T11:49:05;24.50;81.70
47857;DHT22;33618;49.972;8.242;2023-10-08T11:51:33;24.60;81.50
47857;DHT22;33618;49.972;8.242;2023-10-08T11:54:01;24.60;81.30
47857;DHT22;33618;49.972;8.242;2023-10-08T11:56:29;24.20;81.30
47857;DHT22;33618;49.972;8.242;2023-10-08T11:58:56;24.30;82.00
47857;DHT22;33618;49.972;8.242;2023-10-08T12:01:26;24.20;81.80
47857;DHT22;33618;49.972;8.242;2023-10-08T12:03:53;24.30;82.30
47857;DHT22;33618;49.972;8.242;2023-10-08T12:06:26;24.30;81.70
47857;DHT22;33618;49.972;8.242;2023-10-08T12:08:56;24.60;82.00
47857;DHT22;33618;49.972;8.242;2023-10-08T12:11:26;24.60;82.00
47857;DHT22;33618;49.972;8.242;2023-10-08T12:13:59;24.30;81.40
47857;DHT22;33618;49.972;8.242;2023-10-08T12:16:26;24.50;81.80
47857;DHT22;33618;49.972;8.242;2023-10-08T12:18:57;24.60;81.50
47857;DHT22;33618;49.972;8.242;2023-10-08T12:21:26;24.70;81.40
47857;DHT22;33618;49.972;8.242;2023-10-08T12:24:00;24.80;81.10
47857;DHT22;33618;49.972;8.242;2023-10-08T12:26:32;25.20;82.40
47857;DHT22;33618;49.972;8.242;2023-10-08T12:28:58;25.70;81.00
47857;DHT22;33618;49.972;8.242;2023-10-08T12:31:27;26.10;80.40
47857;DHT22;33618;49.972;8.242;2023-10-08T12:33:55;26.20;80.50
47857;DHT22;33618;49.972;8.242;2023-10-08T12:36:27;26.00;80.40
47857;DHT22;33618;49.972;8.242;2023-10-08T12:38:59;26.20;80.60
47857;DHT22;33618;49.972;8.242;2023-10-08T12:41:26;26.60;80.20
47857;DHT22;33618;49.972;8.242;2023-10-08T12:43:54;26.70;79.00
47857;DHT22;33618;49.972;8.242;2023-10-08T12:46:21;27.00;79.00
47857;DHT22;33618;49.972;8.242;2023-10-08T12:48:52;27.40;79.00
47857;DHT22;33618;49.972;8.242;2023-10-08T12:51:22;27.60;78.40
47857;DHT22;33618;49.972;8.242;2023-10-08T12:53:53;27.20;77.90
47857;DHT22;33618;49.972;8.242;2023-10-08T12:56:31;27.20;78.80
47857;DHT22;33618;49.972;8.242;2023-10-08T12:59:15;27.10;78.70
47857;DHT22;33618;49.972;8.242;2023-10-08T13:01:52;27.00;78.40
47857;DHT22;33618;49.972;8.242;2023-10-08T13:04:22;27.20;78.40
47857;DHT22;33618;49.972;8.242;2023-10-08T13:07:01;27.30;78.60
47857;DHT22;33618;49.972;8.242;2023-10-08T13:09:30;27.70;78.70
47857;DHT22;33618;49.972;8.242;2023-10-08T13:12:04;28.20;78.30
47857;DHT22;33618;49.972;8.242;2023-10-08T13:14:31;28.40;76.60
47857;DHT22;33618;49.972;8.242;2023-10-08T13:17:02;28.30;77.10
47857;DHT22;33618;49.972;8.242;2023-10-08T13:19:29;28.60;77.10
47857;DHT22;33618;49.972;8.242;2023-10-08T13:22:01;28.70;76.80
47857;DHT22;33618;49.972;8.242;2023-10-08T13:24:30;28.80;76.40
47857;DHT22;33618;49.972;8.242;2023-10-08T13:26:57;28.80;76.90
47857;DHT22;33618;49.972;8.242;2023-10-08T13:29:25;29.20;76.80
47857;DHT22;33618;49.972;8.242;2023-10-08T13:32:00;29.50;76.70
47857;DHT22;33618;49.972;8.242;2023-10-08T13:34:27;29.40;75.90
47857;DHT22;33618;49.972;8.242;2023-10-08T13:36:54;29.70;76.10
47857;DHT22;33618;49.972;8.242;2023-10-08T13:39:23;30.00;75.70
47857;DHT22;33618;49.972;8.242;2023-10-08T13:41:49;30.10;75.30
47857;DHT22;33618;49.972;8.242;2023-10-08T13:44:19;30.40;75.30
47857;DHT22;33618;49.972;8.242;2023-10-08T13:46:56;30.30;75.70
47857;DHT22;33618;49.972;8.242;2023-10-08T13:49:26;30.00;75.60
47857;DHT22;33618;49.972;8.242;2023-10-08T13:51:53;29.10;75.80
47857;DHT22;33618;49.972;8.242;2023-10-08T13:54:24;28.50;76.50
47857;DHT22;33618;49.972;8.242;2023-10-08T13:56:59;27.90;76.70
47857;DHT22;33618;49.972;8.242;2023-10-08T13:59:28;27.30;77.90
47857;DHT22;33618;49.972;8.242;2023-10-08T14:01:59;26.80;78.10
47857;DHT22;33618;49.972;8.242;2023-10-08T14:04:28;26.40;78.80
47857;DHT22;33618;49.972;8.242;2023-10-08T14:07:01;26.10;79.00
47857;DHT22;33618;49.972;8.242;2023-10-08T14:09:30;26.00;79.40
47857;DHT22;33618;49.972;8.242;2023-10-08T14:11:59;25.80;79.30
47857;DHT22;33618;49.972;8.242;2023-10-08T14:14:27;25.50;80.00
47857;DHT22;33618;49.972;8.242;2023-10-08T14:16:58;25.50;80.40
47857;DHT22;33618;49.972;8.242;2023-10-08T14:19:36;25.60;79.40
47857;DHT22;33618;49.972;8.242;2023-10-08T14:22:06;25.80;79.30
47857;DHT22;33618;49.972;8.242;2023-10-08T14:24:35;25.90;79.60
47857;DHT22;33618;49.972;8.242;2023-10-08T14:27:05;26.40;79.20
47857;DHT22;33618;49.972;8.242;2023-10-08T14:29:42;26.70;78.30
47857;DHT22;33618;49.972;8.242;2023-10-08T14:32:11;26.90;78.20
47857;DHT22;33618;49.972;8.242;2023-10-08T14:34:38;27.30;77.80
47857;DHT22;33618;49.972;8.242;2023-10-08T14:37:21;27.50;77.60
47857;DHT22;33618;49.972;8.242;2023-10-08T14:40:07;27.90;77.70
47857;DHT22;33618;49.972;8.242;2023-10-08T14:42:53;28.40;77.20
47857;DHT22;33618;49.972;8.242;2023-10-08T14:45:25;28.70;76.80
47857;DHT22;33618;49.972;8.242;2023-10-08T14:47:58;28.90;76.40
47857;DHT22;33618;49.972;8.242;2023-10-08T14:50:27;29.20;75.80
47857;DHT22;33618;49.972;8.242;2023-10-08T14:52:55;29.00;75.90
47857;DHT22;33618;49.972;8.242;2023-10-08T14:55:25;29.00;75.90
47857;DHT22;33618;49.972;8.242;2023-10-08T14:57:52;29.10;76.10
47857;DHT22;33618;49.972;8.242;2023-10-08T15:00:22;29.10;75.20
47857;DHT22;33618;49.972;8.242;2023-10-08T15:02:54;28.80;75.30
47857;DHT22;33618;49.972;8.242;2023-10-08T15:05:22;28.90;75.20
47857;DHT22;33618;49.972;8.242;2023-10-08T15:07:53;28.90;76.00
47857;DHT22;33618;49.972;8.242;2023-10-08T15:10:20;29.10;75.80
47857;DHT22;33618;49.972;8.242;2023-10-08T15:12:50;28.90;75.70
47857;DHT22;33618;49.972;8.242;2023-10-08T15:15:19;28.80;75.70
47857;DHT22;33618;49.972;8.242;2023-10-08T15:17:47;28.90;75.90
47857;DHT22;33618;49.972;8.242;2023-10-08T15:20:16;29.10;75.60
47857;DHT22;33618;49.972;8.242;2023-10-08T15:22:45;29.10;75.80
47857;DHT22;33618;49.972;8.242;2023-10-08T15:25:13;29.30;75.40
47857;DHT22;33618;49.972;8.242;2023-10-08T15:27:41;29.10;75.70
47857;DHT22;33618;49.972;8.242;2023-10-08T15:30:12;28.90;75.20
47857;DHT22;33618;49.972;8.242;2023-10-08T15:32:40;28.60;75.40
47857;DHT22;33618;49.972;8.242;2023-10-08T15:35:08;28.40;75.20
47857;DHT22;33618;49.972;8.242;2023-10-08T15:37:36;28.30;75.70
47857;DHT22;33618;49.972;8.242;2023-10-08T15:40:05;28.20;75.40
47857;DHT22;33618;49.972;8.242;2023-10-08T15:42:36;27.70;75.50
47857;DHT22;33618;49.972;8.242;2023-10-08T15:45:04;27.20;75.70
47857;DHT22;33618;49.972;8.242;2023-10-08T15:47:34;26.80;76.70
47857;DHT22;33618;49.972;8.242;2023-10-08T15:50:02;26.80;76.10
47857;DHT22;33618;49.972;8.242;2023-10-08T15:52:29;26.60;77.00
47857;DHT22;33618;49.972;8.242;2023-10-08T15:54:58;26.60;77.20
47857;DHT22;33618;49.972;8.242;2023-10-08T15:57:25;26.50;77.50
47857;DHT22;33618;49.972;8.242;2023-10-08T15:59:52;26.30;77.90
47857;DHT22;33618;49.972;8.242;2023-10-08T16:02:20;26.20;78.60
47857;DHT22;33618;49.972;8.242;2023-10-08T16:04:48;26.10;78.60
47857;DHT22;33618;49.972;8.242;2023-10-08T16:07:15;25.90;79.60
47857;DHT22;33618;49.972;8.242;2023-10-08T16:09:42;25.90;80.10
47857;DHT22;33618;49.972;8.242;2023-10-08T16:12:09;25.70;78.90
47857;DHT22;33618;49.972;8.242;2023-10-08T16:14:36;25.50;80.10
47857;DHT22;33618;49.972;8.242;2023-10-08T16:17:07;25.40;80.60